Time;durP1;ratioP1;P1;durP2;ratioP2;P2;SDS_P1;SDS_P2;PMS_P1;PMS_P2;Temp;Humidity;BMP_temperature;BMP_pressure;BME280_temperature;BME280_humidity;BME280_pressure;Samples;Min_cycle;Max_cycle;Signal;HPM_P1;HPM_P2
2021/08/05 00:01:41;;;;;;;17.67;2.65;;;;;;;17.83;100.00;100667.16;5051131;28;20052;-73
2021/08/05 00:04:06;;;;;;;5.32;2.45;;;;;;;17.71;100.00;100672.34;5039092;28;20028;-73
2021/08/05 00:06:32;;;;;;;4.82;2.20;;;;;;;17.76;100.00;100678.16;5034712;28;20182;-72
2021/08/05 00:08:57;;;;;;;7.30;2.13;;;;;;;17.70;100.00;100673.50;5051527;28;20021;-72
2021/08/05 00:11:23;;;;;;;5.22;2.35;;;;;;;17.71;100.00;100669.63;5048699;28;20037;-73
2021/08/05 00:13:48;;;;;;;7.68;3.10;;;;;;;17.75;100.00;100673.09;5052311;28;20151;-73
2021/08/05 00:16:14;;;;;;;3.85;2.30;;;;;;;17.78;100.00;100670.34;5057728;28;20492;-73
2021/08/05 00:18:39;;;;;;;4.25;2.20;;;;;;;17.70;100.00;100676.25;5058422;28;20048;-74
2021/08/05 00:21:05;;;;;;;3.38;1.98;;;;;;;17.60;100.00;100672.44;5044483;28;20179;-73
2021/08/05 00:23:31;;;;;;;6.07;2.20;;;;;;;17.59;100.00;100668.19;5049770;28;20032;-73
2021/08/05 00:25:56;;;;;;;5.93;2.40;;;;;;;17.61;100.00;100670.50;5047083;28;20029;-73
2021/08/05 00:28:22;;;;;;;5.47;2.10;;;;;;;17.65;100.00;100672.00;5053046;28;20041;-74
2021/08/05 00:30:47;;;;;;;8.23;2.55;;;;;;;17.61;100.00;100665.81;5032374;28;20096;-73
2021/08/05 00:33:12;;;;;;;5.30;2.50;;;;;;;17.63;100.00;100666.19;5049241;28;20119;-72
2021/08/05 00:35:39;;;;;;;3.45;2.47;;;;;;;17.69;100.00;100661.09;5033723;28;20032;-75
2021/08/05 00:38:04;;;;;;;6.70;2.65;;;;;;;17.66;100.00;100659.94;5052452;28;20017;-73
2021/08/05 00:40:30;;;;;;;2.67;2.03;;;;;;;17.60;100.00;100658.03;5048628;28;20060;-73
2021/08/05 00:42:55;;;;;;;5.43;2.33;;;;;;;17.65;100.00;100657.63;5034541;28;20029;-75
2021/08/05 00:45:21;;;;;;;7.88;2.20;;;;;;;17.58;100.00;100649.47;5031396;28;20059;-73
2021/08/05 00:47:46;;;;;;;4.40;2.40;;;;;;;17.64;100.00;100645.94;5032141;28;20108;-73
2021/08/05 00:50:12;;;;;;;2.75;2.20;;;;;;;17.57;100.00;100637.84;5052493;28;20075;-74
2021/08/05 00:52:38;;;;;;;7.63;2.58;;;;;;;17.65;100.00;100650.19;5029915;28;20028;-74
2021/08/05 00:55:05;;;;;;;4.75;2.90;;;;;;;17.63;100.00;100640.91;5051690;28;20037;-73
2021/08/05 00:57:31;;;;;;;5.97;2.40;;;;;;;17.57;100.00;100646.00;5033914;28;20025;-73
2021/08/05 00:59:57;;;;;;;4.55;2.42;;;;;;;17.56;100.00;100640.94;5051903;28;20056;-73
2021/08/05 01:02:26;;;;;;;8.60;2.67;;;;;;;17.65;100.00;100641.28;5044720;28;20068;-72
2021/08/05 01:04:53;;;;;;;4.40;2.55;;;;;;;17.62;100.00;100642.84;5033460;28;20049;-75
2021/08/05 01:07:31;;;;;;;2.95;2.42;;;;;;;17.37;100.00;100647.69;5059746;28;20047;-73
2021/08/05 01:10:09;;;;;;;7.40;2.50;;;;;;;17.36;100.00;100642.66;5040790;28;20028;-73
2021/08/05 01:12:52;;;;;;;4.70;2.20;;;;;;;17.29;100.00;100648.91;5043421;28;20086;-72
2021/08/05 01:15:23;;;;;;;5.50;2.30;;;;;;;17.22;100.00;100648.19;5046650;28;20055;-73
2021/08/05 01:17:52;;;;;;;;;;;;;;;17.10;100.00;100643.97;5043541;28;20051;-75
2021/08/05 01:20:19;;;;;;;2.35;2.10;;;;;;;17.23;100.00;100650.50;5047572;28;19919;-73
2021/08/05 01:22:50;;;;;;;5.55;2.42;;;;;;;17.20;100.00;100639.66;5050557;28;20071;-74
2021/08/05 01:25:29;;;;;;;5.63;2.45;;;;;;;17.29;100.00;100640.75;5050354;28;20521;-73
2021/08/05 01:27:56;;;;;;;4.47;2.47;;;;;;;17.32;100.00;100641.91;5051135;28;20485;-75
2021/08/05 01:30:22;;;;;;;7.13;2.25;;;;;;;17.43;100.00;100637.91;5062437;28;20025;-73
2021/08/05 01:32:48;;;;;;;4.78;2.38;;;;;;;17.39;100.00;100637.16;5033760;28;20052;-73
2021/08/05 01:35:15;;;;;;;7.07;2.38;;;;;;;17.26;100.00;100638.81;5030698;28;20044;-74
2021/08/05 01:37:41;;;;;;;7.50;2.22;;;;;;;17.29;100.00;100640.75;5037312;28;20120;-72
2021/08/05 01:40:08;;;;;;;2.50;2.20;;;;;;;17.14;100.00;100637.34;5051530;28;20397;-77
2021/08/05 01:42:36;;;;;;;5.80;2.20;;;;;;;17.20;100.00;100640.44;5048358;28;20045;-73
2021/08/05 01:45:02;;;;;;;4.35;2.10;;;;;;;17.23;100.00;100628.72;5050883;28;20039;-74
2021/08/05 01:47:29;;;;;;;2.40;2.03;;;;;;;17.29;100.00;100629.84;5048255;28;20503;-72
2021/08/05 01:49:56;;;;;;;6.20;2.70;;;;;;;17.30;100.00;100628.69;5033502;28;20029;-72
2021/08/05 01:52:22;;;;;;;4.15;2.25;;;;;;;17.23;100.00;100627.97;5040991;28;20029;-73
2021/08/05 01:54:48;;;;;;;6.07;2.60;;;;;;;17.27;100.00;100639.59;5050497;28;20036;-72
2021/08/05 01:57:14;;;;;;;5.32;2.20;;;;;;;17.13;100.00;100629.56;5048835;28;20037;-73
2021/08/05 01:59:40;;;;;;;2.85;2.00;;;;;;;17.01;100.00;100632.78;5029665;28;20085;-75
2021/08/05 02:02:08;;;;;;;2.67;2.17;;;;;;;16.87;100.00;100628.19;5047315;28;20109;-73
2021/08/05 02:05:15;;;;;;;2.60;2.35;;;;;;;16.84;100.00;100630.94;5042635;28;20440;-72
2021/08/05 02:07:54;;;;;;;5.43;2.10;;;;;;;16.89;100.00;100635.97;5026147;28;20120;-75
2021/08/05 02:10:27;;;;;;;4.60;2.13;;;;;;;16.86;100.00;100623.91;5024006;28;20676;-72
2021/08/05 02:13:23;;;;;;;3.70;2.22;;;;;;;16.94;100.00;100627.38;5033380;28;20078;-77
2021/08/05 02:15:52;;;;;;;3.50;2.20;;;;;;;16.99;100.00;100633.16;5039781;28;20075;-72
2021/08/05 02:18:20;;;;;;;3.08;1.95;;;;;;;16.85;100.00;100629.75;5033174;28;20100;-75
2021/08/05 02:20:47;;;;;;;6.50;2.10;;;;;;;16.87;100.00;100632.84;5040189;28;20021;-73
2021/08/05 02:23:15;;;;;;;2.15;1.83;;;;;;;16.87;100.00;100630.13;5035659;28;20478;-72
2021/08/05 02:25:41;;;;;;;4.72;1.88;;;;;;;16.90;100.00;100621.94;5031604;28;20029;-72
2021/08/05 02:28:07;;;;;;;3.30;1.90;;;;;;;16.92;100.00;100624.25;5047441;28;20525;-73
2021/08/05 02:30:34;;;;;;;4.30;2.03;;;;;;;17.01;100.00;100630.81;5048244;28;20033;-72
2021/08/05 02:33:00;;;;;;;2.00;1.80;;;;;;;16.91;100.00;100623.50;5027360;28;20059;-72
2021/08/05 02:35:27;;;;;;;5.32;2.47;;;;;;;16.92;100.00;100624.25;5028215;28;20579;-73
2021/08/05 02:37:53;;;;;;;2.92;1.90;;;;;;;16.81;100.00;100627.06;5039704;28;20393;-73
2021/08/05 02:40:19;;;;;;;2.63;1.90;;;;;;;16.75;100.00;100625.94;5032744;28;20029;-75
2021/08/05 02:42:46;;;;;;;3.22;1.70;;;;;;;16.74;100.00;100618.91;5030868;28;20091;-72
2021/08/05 02:45:13;;;;;;;3.00;2.10;;;;;;;16.85;100.00;100622.38;5031011;28;20090;-73
2021/08/05 02:47:39;;;;;;;3.70;1.80;;;;;;;16.84;100.00;100612.66;5050390;28;20056;-74
2021/08/05 02:50:06;;;;;;;2.40;1.98;;;;;;;16.90;100.00;100610.28;5050468;28;20485;-76
2021/08/05 02:52:34;;;;;;;2.10;1.85;;;;;;;16.83;100.00;100613.84;5030432;28;20032;-72
2021/08/05 02:55:02;;;;;;;2.72;2.03;;;;;;;16.85;100.00;100610.72;5034865;28;20064;-72
2021/08/05 02:57:28;;;;;;;3.45;2.05;;;;;;;16.80;100.00;100606.47;5030553;28;20021;-73
2021/08/05 02:59:53;;;;;;;8.32;2.45;;;;;;;16.89;100.00;100606.81;5050388;28;20055;-72
2021/08/05 03:02:19;;;;;;;6.25;2.25;;;;;;;16.88;100.00;100607.19;5031275;28;20375;-73
2021/08/05 03:04:45;;;;;;;3.97;2.10;;;;;;;16.80;100.00;100611.16;5054999;28;20033;-72
2021/08/05 03:07:11;;;;;;;2.88;1.85;;;;;;;16.78;100.00;100608.03;5050027;28;20210;-73
2021/08/05 03:09:37;;;;;;;5.57;1.83;;;;;;;16.77;100.00;100606.47;5050327;28;20075;-76
2021/08/05 03:12:03;;;;;;;2.22;2.00;;;;;;;16.67;100.00;100601.88;5029741;28;20061;-72
2021/08/05 03:14:28;;;;;;;2.65;2.10;;;;;;;16.75;100.00;100597.94;5048485;28;20068;-72
2021/08/05 03:16:53;;;;;;;3.22;1.80;;;;;;;16.75;100.00;100601.44;5050904;28;20065;-73
2021/08/05 03:19:19;;;;;;;5.40;2.13;;;;;;;16.77;100.00;100590.16;5050076;28;20036;-73
2021/08/05 03:21:44;;;;;;;3.47;1.90;;;;;;;16.87;100.00;100592.81;5042792;28;20500;-72
2021/08/05 03:24:10;;;;;;;8.13;1.90;;;;;;;16.95;100.00;100596.28;5036384;28;20525;-73
2021/08/05 03:26:35;;;;;;;2.90;1.92;;;;;;;16.93;100.00;100595.91;5036394;28;20435;-74
2021/08/05 03:29:01;;;;;;;2.00;1.80;;;;;;;16.91;100.00;100590.09;5048976;28;20451;-73
2021/08/05 03:31:26;;;;;;;1.92;1.63;;;;;;;16.99;100.00;100580.69;5047353;28;20037;-74
2021/08/05 03:33:51;;;;;;;3.03;1.75;;;;;;;16.93;100.00;100579.56;5042782;23;20159;-71
2021/08/05 03:36:17;;;;;;;3.10;1.80;;;;;;;17.03;100.00;100581.44;5021984;28;20022;-71
2021/08/05 03:38:42;;;;;;;2.25;1.80;;;;;;;17.02;100.00;100577.16;5023356;28;20058;-73
2021/08/05 03:41:08;;;;;;;1.90;1.50;;;;;;;16.92;100.00;100575.28;5046542;28;20033;-73
2021/08/05 03:43:35;;;;;;;2.17;1.60;;;;;;;16.94;100.00;100584.59;5023352;28;20545;-73
2021/08/05 03:46:01;;;;;;;1.88;1.50;;;;;;;16.99;100.00;100575.25;5025508;28;20129;-72
2021/08/05 03:48:26;;;;;;;3.40;1.40;;;;;;;17.08;100.00;100572.84;5029768;28;20026;-74
2021/08/05 03:50:53;;;;;;;2.30;1.50;;;;;;;17.04;100.00;100575.59;5036729;28;20508;-73
2021/08/05 03:53:19;;;;;;;1.70;1.40;;;;;;;17.11;100.00;100572.81;5043625;28;20033;-73
2021/08/05 03:55:44;;;;;;;1.55;1.45;;;;;;;17.00;100.00;100577.56;5032892;28;20029;-73
2021/08/05 03:58:10;;;;;;;1.80;1.40;;;;;;;16.90;100.00;100577.63;5049776;28;20048;-73
2021/08/05 04:00:36;;;;;;;1.88;1.48;;;;;;;16.94;100.00;100567.50;5035157;28;20037;-74
2021/08/05 04:03:02;;;;;;;1.90;1.60;;;;;;;17.02;100.00;100566.28;5014420;28;20037;-73
2021/08/05 04:05:28;;;;;;;1.63;1.40;;;;;;;16.98;100.00;100570.97;5026306;28;20108;-73
2021/08/05 04:07:53;;;;;;;2.22;1.50;;;;;;;16.83;100.00;100573.03;5030981;28;20397;-74
2021/08/05 04:10:19;;;;;;;2.10;1.33;;;;;;;16.89;100.00;100571.44;5029467;28;20077;-73
2021/08/05 04:12:44;;;;;;;1.70;1.60;;;;;;;16.88;100.00;100569.88;5030111;28;20120;-73
2021/08/05 04:15:10;;;;;;;1.25;1.15;;;;;;;16.86;100.00;100561.34;5033426;28;20104;-73
2021/08/05 04:17:37;;;;;;;1.60;1.50;;;;;;;16.92;100.00;100564.41;5043617;28;20025;-74
2021/08/05 04:20:04;;;;;;;1.58;1.30;;;;;;;16.91;100.00;100557.44;5038595;28;20037;-72
2021/08/05 04:22:30;;;;;;;1.42;1.20;;;;;;;16.99;100.00;100564.38;5032915;28;20055;-74
2021/08/05 04:24:55;;;;;;;1.38;1.25;;;;;;;16.95;100.00;100563.63;5028902;28;20526;-73
2021/08/05 04:27:21;;;;;;;1.50;1.40;;;;;;;16.97;100.00;100572.16;5034595;28;20029;-74
2021/08/05 04:29:46;;;;;;;1.33;1.20;;;;;;;16.94;100.00;100572.94;5032622;28;20057;-74
2021/08/05 04:32:12;;;;;;;4.35;1.50;;;;;;;16.99;100.00;100575.25;5029521;28;20506;-73
2021/08/05 04:34:37;;;;;;;1.40;1.30;;;;;;;16.86;100.00;100582.34;5031216;28;20021;-73
2021/08/05 04:37:03;;;;;;;1.48;1.38;;;;;;;16.84;100.00;100584.69;5031851;28;20022;-73
2021/08/05 04:39:28;;;;;;;1.38;1.27;;;;;;;16.85;100.00;100576.13;5029770;28;20038;-73
2021/08/05 04:41:55;;;;;;;1.45;1.30;;;;;;;16.79;100.00;100576.94;5024019;28;20033;-75
2021/08/05 04:44:21;;;;;;;1.27;1.05;;;;;;;16.77;100.00;100573.84;5037113;28;20408;-77
2021/08/05 04:46:46;;;;;;;3.20;1.50;;;;;;;16.77;100.00;100574.63;5027480;28;20045;-73
2021/08/05 04:49:12;;;;;;;1.65;1.30;;;;;;;16.84;100.00;100579.25;5025965;28;20037;-73
2021/08/05 04:51:38;;;;;;;1.88;1.58;;;;;;;16.86;100.00;100582.34;5031936;28;20397;-73
2021/08/05 04:54:03;;;;;;;2.20;1.40;;;;;;;16.91;100.00;100579.19;5032128;28;20033;-73
2021/08/05 04:56:30;;;;;;;1.60;1.50;;;;;;;16.86;100.00;100576.91;5023803;28;20068;-73
2021/08/05 04:58:56;;;;;;;2.67;1.40;;;;;;;16.93;100.00;100569.47;5031934;28;20457;-73
2021/08/05 05:01:21;;;;;;;1.60;1.48;;;;;;;16.97;100.00;100570.22;5021020;28;20033;-73
2021/08/05 05:03:47;;;;;;;2.72;1.42;;;;;;;16.94;100.00;100567.50;5023356;28;20052;-72
2021/08/05 05:06:12;;;;;;;1.42;1.33;;;;;;;16.91;100.00;100562.88;5028722;28;20079;-73
2021/08/05 05:08:38;;;;;;;1.90;1.25;;;;;;;16.88;100.00;100561.72;5034636;28;20033;-73
2021/08/05 05:11:03;;;;;;;2.03;1.63;;;;;;;16.88;100.00;100566.38;5018597;28;20049;-73
2021/08/05 05:13:29;;;;;;;2.20;1.30;;;;;;;16.91;100.00;100569.09;5031461;28;20444;-72
2021/08/05 05:15:54;;;;;;;1.70;1.40;;;;;;;16.91;100.00;100573.75;5030491;28;20493;-73
2021/08/05 05:18:23;;;;;;;1.48;1.38;;;;;;;16.99;100.00;100569.81;5014902;28;20044;-73
2021/08/05 05:20:50;;;;;;;2.05;1.35;;;;;;;17.04;100.00;100567.44;5040690;28;20059;-73
2021/08/05 05:23:15;;;;;;;1.50;1.23;;;;;;;16.99;100.00;100570.56;5022808;28;20025;-73
2021/08/05 05:25:42;;;;;;;1.63;1.33;;;;;;;17.07;100.00;100561.19;5035231;28;20033;-72
2021/08/05 05:28:08;;;;;;;1.52;1.38;;;;;;;17.10;100.00;100567.78;5032535;28;20059;-72
2021/08/05 05:30:35;;;;;;;2.10;1.67;;;;;;;17.09;100.00;100571.69;5025440;28;20041;-74
2021/08/05 05:33:00;;;;;;;2.30;1.70;;;;;;;17.11;100.00;100563.91;5026194;28;20543;-75
2021/08/05 05:35:26;;;;;;;1.35;1.20;;;;;;;17.14;100.00;100557.66;5032867;28;20029;-75
2021/08/05 05:37:53;;;;;;;3.13;1.60;;;;;;;17.25;100.00;100565.75;5029722;28;20025;-75
2021/08/05 05:40:20;;;;;;;4.15;1.55;;;;;;;17.19;100.00;100561.91;5029393;28;20040;-72
2021/08/05 05:42:45;;;;;;;1.52;1.30;;;;;;;17.27;100.00;100571.53;5027933;28;20037;-74
2021/08/05 05:45:13;;;;;;;2.65;1.30;;;;;;;17.27;100.00;100561.41;5027007;28;20405;-75
2021/08/05 05:47:39;;;;;;;1.80;1.20;;;;;;;17.32;100.00;100558.28;5030251;28;20029;-75
2021/08/05 05:50:05;;;;;;;1.52;1.40;;;;;;;17.31;100.00;100561.38;5030158;28;20493;-74
2021/08/05 05:52:31;;;;;;;1.65;1.27;;;;;;;17.33;100.00;100557.09;5030185;28;20041;-75
2021/08/05 05:54:57;;;;;;;1.13;1.02;;;;;;;17.34;100.00;100553.22;5035438;28;20562;-75
2021/08/05 05:57:22;;;;;;;1.73;1.35;;;;;;;17.34;100.00;100558.66;5029389;28;20398;-76
2021/08/05 05:59:48;;;;;;;3.00;1.30;;;;;;;17.41;100.00;100555.84;5034235;28;20029;-73
2021/08/05 06:02:13;;;;;;;1.60;1.40;;;;;;;17.42;100.00;100554.66;5027987;28;20037;-75
2021/08/05 06:04:39;;;;;;;1.38;1.20;;;;;;;17.39;100.00;100558.22;5020684;28;20041;-72
2021/08/05 06:07:04;;;;;;;1.65;1.40;;;;;;;17.42;100.00;100549.22;5028535;28;20120;-73
2021/08/05 06:09:30;;;;;;;1.63;1.30;;;;;;;17.44;100.00;100552.31;5030593;28;20494;-74
2021/08/05 06:11:55;;;;;;;3.17;1.40;;;;;;;17.52;100.00;100562.00;5020043;28;20057;-76
2021/08/05 06:14:20;;;;;;;1.90;1.38;;;;;;;17.38;100.00;100562.09;5021222;28;20041;-74
2021/08/05 06:16:46;;;;;;;1.38;1.23;;;;;;;17.44;100.00;100555.03;5038215;28;20079;-73
2021/08/05 06:19:12;;;;;;;1.10;1.02;;;;;;;17.55;100.00;100560.44;5040474;28;20076;-75
2021/08/05 06:21:39;;;;;;;1.55;1.40;;;;;;;17.67;100.00;100555.22;5028762;28;20512;-75
2021/08/05 06:24:04;;;;;;;1.52;1.40;;;;;;;17.76;100.00;100566.44;5032117;28;20025;-75
2021/08/05 06:26:30;;;;;;;1.30;1.20;;;;;;;17.89;100.00;100562.00;5012391;28;20044;-76
2021/08/05 06:28:55;;;;;;;1.60;1.23;;;;;;;18.08;99.78;100565.31;5034287;28;20132;-75
2021/08/05 06:31:21;;;;;;;1.50;1.40;;;;;;;18.03;100.00;100561.06;5017362;28;20030;-74
2021/08/05 06:33:50;;;;;;;1.33;1.23;;;;;;;18.03;100.00;100564.59;5023302;28;20033;-75
2021/08/05 06:36:19;;;;;;;3.25;1.63;;;;;;;18.03;100.00;100556.41;5026844;28;20417;-75
2021/08/05 06:38:45;;;;;;;1.95;1.35;;;;;;;17.85;99.53;100557.78;5028163;28;20064;-76
2021/08/05 06:41:11;;;;;;;1.92;1.30;;;;;;;17.91;100.00;100565.09;5029847;28;20498;-75
2021/08/05 06:43:36;;;;;;;1.50;1.10;;;;;;;18.14;99.58;100560.97;5027457;28;20140;-75
2021/08/05 06:46:02;;;;;;;1.75;1.30;;;;;;;18.16;99.52;100556.63;5024987;28;20068;-74
2021/08/05 06:48:27;;;;;;;1.70;1.42;;;;;;;18.21;98.90;100563.59;5029138;28;20045;-75
2021/08/05 06:50:53;;;;;;;1.67;1.20;;;;;;;18.39;97.57;100566.88;5044291;28;20044;-75
2021/08/05 06:53:20;;;;;;;1.20;1.10;;;;;;;18.48;97.96;100562.50;5027930;28;20114;-74
2021/08/05 06:55:45;;;;;;;1.55;1.35;;;;;;;18.61;97.92;100568.16;5019238;28;20022;-75
2021/08/05 06:58:11;;;;;;;2.40;1.48;;;;;;;18.71;98.18;100564.50;5031359;28;20034;-75
2021/08/05 07:00:36;;;;;;;1.52;1.40;;;;;;;18.68;99.04;100565.31;5033412;28;20072;-75
2021/08/05 07:03:02;;;;;;;2.03;1.52;;;;;;;18.82;98.25;100570.56;5034741;28;20083;-75
2021/08/05 07:05:27;;;;;;;1.83;1.40;;;;;;;18.92;97.16;100569.66;5020004;28;20034;-75
2021/08/05 07:07:55;;;;;;;1.30;1.20;;;;;;;18.88;96.46;100563.47;5025218;28;20025;-74
2021/08/05 07:10:22;;;;;;;1.50;1.40;;;;;;;19.04;94.98;100562.84;5029866;28;20044;-75
2021/08/05 07:12:47;;;;;;;2.08;1.38;;;;;;;18.92;95.09;100570.44;5017877;28;20048;-75
2021/08/05 07:15:13;;;;;;;1.33;1.13;;;;;;;18.82;96.14;100565.13;5027769;28;20033;-75
2021/08/05 07:17:43;;;;;;;1.60;1.20;;;;;;;18.98;94.94;100556.31;5031725;28;20588;-74
2021/08/05 07:20:29;;;;;;;1.52;1.40;;;;;;;19.04;96.50;100555.44;5034950;28;20176;-72
2021/08/05 07:22:55;;;;;;;1.85;1.50;;;;;;;19.19;95.91;100547.75;5007843;28;20536;-74
2021/08/05 07:25:21;;;;;;;2.00;1.30;;;;;;;19.28;96.94;100559.69;5015786;28;20113;-75
2021/08/05 07:27:47;;;;;;;2.00;1.38;;;;;;;19.38;95.77;100555.28;5016237;28;20041;-74
2021/08/05 07:30:14;;;;;;;1.60;1.30;;;;;;;19.18;94.71;100563.38;5009334;28;20049;-76
2021/08/05 07:32:39;;;;;;;1.77;1.35;;;;;;;19.41;95.00;100560.69;5009499;28;20607;-74
2021/08/05 07:35:06;;;;;;;1.58;1.35;;;;;;;19.29;93.71;100560.47;5009637;28;20056;-75
2021/08/05 07:37:32;;;;;;;1.55;1.40;;;;;;;19.56;93.69;100556.53;5018278;28;20029;-75
2021/08/05 07:39:57;;;;;;;1.20;1.10;;;;;;;19.72;89.74;100547.66;5013099;28;20041;-74
2021/08/05 07:42:23;;;;;;;1.70;1.45;;;;;;;19.95;91.60;100555.78;4994730;28;20414;-74
2021/08/05 07:44:48;;;;;;;2.85;1.40;;;;;;;20.05;92.70;100551.28;5019164;28;20054;-72
2021/08/05 07:47:15;;;;;;;2.45;1.10;;;;;;;20.51;91.90;100565.59;5008575;28;20039;-76
2021/08/05 07:49:41;;;;;;;2.17;1.55;;;;;;;20.72;90.87;100553.38;5010129;28;20072;-73
2021/08/05 07:52:07;;;;;;;1.55;1.23;;;;;;;20.73;89.34;100557.66;5016586;28;20086;-75
2021/08/05 07:54:33;;;;;;;2.00;1.20;;;;;;;20.85;89.43;100557.00;4986877;28;20064;-73
2021/08/05 07:56:59;;;;;;;2.03;1.20;;;;;;;20.97;88.21;100553.56;5008953;28;20046;-74
2021/08/05 07:59:25;;;;;;;1.67;1.38;;;;;;;20.96;85.32;100551.28;5016241;28;20048;-74
2021/08/05 08:01:50;;;;;;;1.50;1.40;;;;;;;20.73;85.42;100554.91;5018810;28;20509;-73
2021/08/05 08:04:16;;;;;;;1.13;1.02;;;;;;;20.86;85.79;100550.31;5030078;28;20037;-75
2021/08/05 08:06:41;;;;;;;2.53;1.30;;;;;;;20.82;87.65;100557.84;5040398;28;20071;-75
2021/08/05 08:09:07;;;;;;;1.20;1.10;;;;;;;20.75;87.21;100551.78;5034681;28;20037;-73
2021/08/05 08:11:33;;;;;;;1.20;1.10;;;;;;;20.67;85.65;100553.91;5038861;28;20389;-74
2021/08/05 08:13:58;;;;;;;5.82;1.50;;;;;;;20.79;86.49;100547.75;5035775;28;20116;-74
2021/08/05 08:16:24;;;;;;;1.38;1.23;;;;;;;20.92;85.37;100550.59;5028754;28;20116;-74
2021/08/05 08:18:50;;;;;;;2.20;1.42;;;;;;;21.03;85.78;100554.63;5031759;28;20041;-71
2021/08/05 08:21:17;;;;;;;1.70;1.50;;;;;;;21.03;84.65;100553.84;5024461;28;20036;-73
2021/08/05 08:23:43;;;;;;;1.35;1.10;;;;;;;21.11;83.71;100553.28;5032050;28;20714;-75
2021/08/05 08:26:09;;;;;;;1.80;1.35;;;;;;;20.97;82.76;100550.06;5026613;28;20043;-72
2021/08/05 08:28:34;;;;;;;1.40;1.30;;;;;;;21.05;83.36;100549.50;5028260;28;20025;-72
2021/08/05 08:31:01;;;;;;;3.80;1.30;;;;;;;;;;5030424;28;20041;-72
2021/08/05 08:33:26;;;;;;;2.25;1.45;;;;;;;20.39;85.06;100552.56;5033833;28;20037;-72
2021/08/05 08:35:52;;;;;;;1.40;1.15;;;;;;;20.32;85.26;100546.47;5037897;28;20033;-72
2021/08/05 08:38:23;;;;;;;1.48;1.08;;;;;;;20.69;86.14;100538.56;5024083;28;20370;-72
2021/08/05 08:40:55;;;;;;;2.13;1.30;;;;;;;20.90;86.25;100547.50;5032481;28;20426;-74
2021/08/05 08:43:20;;;;;;;1.40;1.08;;;;;;;21.16;86.30;100533.56;5031296;28;20121;-72
2021/08/05 08:45:47;;;;;;;1.63;1.17;;;;;;;21.40;86.94;100542.38;5022950;28;20096;-72
2021/08/05 08:48:13;;;;;;;1.70;1.40;;;;;;;21.21;85.20;100538.56;5031513;28;20474;-74
2021/08/05 08:50:42;;;;;;;2.08;1.13;;;;;;;21.48;82.07;100539.03;5036594;28;20029;-72
2021/08/05 08:53:10;;;;;;;1.45;1.17;;;;;;;21.38;82.24;100540.06;5023088;28;20070;-70
2021/08/05 08:55:41;;;;;;;1.33;1.23;;;;;;;21.35;82.77;100532.69;5027176;28;20026;-70
2021/08/05 08:58:08;;;;;;;1.20;1.02;;;;;;;21.54;82.79;100533.78;5021723;28;20028;-72
2021/08/05 09:00:36;;;;;;;1.45;1.15;;;;;;;21.76;83.58;100528.47;5035833;28;20047;-70
2021/08/05 09:03:03;;;;;;;1.30;1.20;;;;;;;21.89;82.93;100530.06;5019516;28;20044;-70
2021/08/05 09:05:29;;;;;;;1.15;1.05;;;;;;;21.84;82.45;100536.09;5024983;28;20375;-70
2021/08/05 09:07:58;;;;;;;1.25;1.00;;;;;;;21.98;81.63;100530.22;5025016;28;20057;-70
2021/08/05 09:10:24;;;;;;;1.23;1.13;;;;;;;22.32;83.09;100532.38;5038911;28;20103;-70
2021/08/05 09:12:58;;;;;;;1.30;1.20;;;;;;;22.62;82.40;100525.63;5032551;28;20153;-70
2021/08/05 09:15:33;;;;;;;1.60;1.23;;;;;;;22.78;80.91;100528.25;5023923;28;20033;-70
2021/08/05 09:17:58;;;;;;;1.73;1.42;;;;;;;22.99;80.20;100533.84;5024517;28;20025;-70
2021/08/05 09:20:24;;;;;;;1.75;1.10;;;;;;;23.09;77.54;100518.94;5030275;28;20494;-74
2021/08/05 09:22:49;;;;;;;1.83;1.20;;;;;;;23.06;77.35;100514.34;5022017;28;20505;-74
2021/08/05 09:25:18;;;;;;;2.25;1.35;;;;;;;23.45;80.27;100507.56;5022568;28;20168;-70
2021/08/05 09:27:45;;;;;;;1.20;1.10;;;;;;;23.64;74.29;100497.47;5019846;28;20052;-70
2021/08/05 09:30:10;;;;;;;1.35;1.02;;;;;;;23.66;70.04;100503.28;5025336;28;20038;-70
2021/08/05 09:32:35;;;;;;;1.40;1.00;;;;;;;23.57;68.02;100501.25;5030676;28;20056;-71
2021/08/05 09:35:10;;;;;;;1.75;1.20;;;;;;;23.63;69.47;100509.69;5045165;23;20037;-75
2021/08/05 09:37:37;;;;;;;1.27;1.17;;;;;;;23.35;69.05;100513.41;5048849;28;20051;-74
2021/08/05 09:40:11;;;;;;;1.05;1.00;;;;;;;23.63;68.70;100504.97;5067271;28;20739;-74
2021/08/05 09:42:36;;;;;;;1.40;1.23;;;;;;;23.84;70.80;100501.44;5046129;28;20033;-73
2021/08/05 09:45:02;;;;;;;2.15;1.40;;;;;;;23.37;67.76;100497.25;5012375;28;20038;-73
2021/08/05 09:47:28;;;;;;;3.00;1.27;;;;;;;23.19;68.41;100495.84;5021879;28;20498;-74
2021/08/05 09:49:55;;;;;;;1.50;1.30;;;;;;;23.47;68.99;100493.34;5024453;28;20045;-76
2021/08/05 09:52:32;;;;;;;1.30;1.20;;;;;;;23.67;65.91;100497.34;5016025;28;20565;-73
2021/08/05 09:54:59;;;;;;;1.38;1.10;;;;;;;23.54;67.23;100495.88;5023344;28;20041;-73
2021/08/05 09:57:30;;;;;;;1.88;1.20;;;;;;;23.01;65.60;100487.44;5026000;28;20084;-72
2021/08/05 09:59:59;;;;;;;1.83;1.40;;;;;;;22.86;66.58;100478.13;5021338;28;20034;-74
2021/08/05 10:02:26;;;;;;;1.65;1.40;;;;;;;23.31;71.06;100477.81;5019801;28;20037;-74
2021/08/05 10:04:54;;;;;;;2.33;1.60;;;;;;;23.34;68.98;100478.91;5007307;28;20018;-73
2021/08/05 10:07:20;;;;;;;1.80;1.63;;;;;;;23.29;69.83;100474.69;5016754;28;20049;-75
2021/08/05 10:09:56;;;;;;;1.42;1.33;;;;;;;23.28;66.41;100473.97;5030591;28;20037;-73
2021/08/05 10:12:31;;;;;;;1.77;1.67;;;;;;;23.01;66.30;100470.19;5018698;28;20127;-80
2021/08/05 10:15:08;;;;;;;1.50;1.40;;;;;;;22.85;68.27;100473.84;5022968;28;20042;-75
2021/08/05 10:17:35;;;;;;;1.85;1.65;;;;;;;23.16;68.54;100466.50;5011418;28;20034;-80
2021/08/05 10:20:03;;;;;;;1.35;1.25;;;;;;;23.48;66.63;100464.66;5018232;28;20123;-75
2021/08/05 10:22:29;;;;;;;1.40;1.30;;;;;;;23.71;65.89;100458.72;5029370;28;20041;-75
2021/08/05 10:24:56;;;;;;;1.70;1.50;;;;;;;23.97;63.63;100460.06;5025192;28;20618;-77
2021/08/05 10:27:22;;;;;;;2.20;1.70;;;;;;;23.68;64.49;100456.84;5023304;28;20394;-75
2021/08/05 10:29:50;;;;;;;1.50;1.40;;;;;;;23.54;64.40;100451.88;5019351;28;20048;-75
2021/08/05 10:32:19;;;;;;;1.95;1.55;;;;;;;23.59;65.46;100443.03;5023067;28;20112;-75
2021/08/05 10:34:44;;;;;;;1.55;1.45;;;;;;;23.81;65.08;100452.06;5016846;28;20030;-73
2021/08/05 10:37:12;;;;;;;1.75;1.50;;;;;;;24.14;65.89;100445.66;5018590;28;20026;-73
2021/08/05 10:39:42;;;;;;;1.60;1.50;;;;;;;24.16;65.81;100450.72;5020654;28;20464;-74
2021/08/05 10:42:17;;;;;;;1.40;1.30;;;;;;;23.94;63.35;100438.97;5016569;28;20033;-76
2021/08/05 10:44:44;;;;;;;1.50;1.20;;;;;;;23.89;67.66;100437.56;5026147;28;20099;-73
2021/08/05 10:47:22;;;;;;;1.60;1.33;;;;;;;24.04;67.33;100429.56;5026026;28;20069;-73
2021/08/05 10:49:50;;;;;;;1.75;1.52;;;;;;;24.41;65.65;100438.75;5013790;28;20038;-73
2021/08/05 10:52:34;;;;;;;1.40;1.30;;;;;;;24.47;66.15;100425.88;5012768;28;20045;-76
2021/08/05 10:55:01;;;;;;;1.70;1.40;;;;;;;24.63;63.30;100420.13;5014419;28;20083;-76
2021/08/05 10:57:27;;;;;;;1.45;1.25;;;;;;;24.61;62.85;100414.28;5009309;28;20021;-73
2021/08/05 11:00:16;;;;;;;1.63;1.40;;;;;;;24.57;61.36;100419.94;5019521;28;20508;-76
2021/08/05 11:02:55;;;;;;;1.52;1.15;;;;;;;24.97;62.93;100419.91;5012098;28;20040;-74
2021/08/05 11:05:21;;;;;;;1.70;1.40;;;;;;;24.93;61.12;100413.78;5032609;28;20417;-75
2021/08/05 11:07:49;;;;;;;1.70;1.33;;;;;;;24.13;61.46;100410.34;5030448;28;20041;-73
2021/08/05 11:10:15;;;;;;;1.58;1.25;;;;;;;24.17;66.53;100410.97;5031753;28;20500;-73
2021/08/05 11:12:45;;;;;;;1.65;1.20;;;;;;;24.26;65.00;100402.72;5030271;28;20038;-73
2021/08/05 11:15:25;;;;;;;1.23;1.13;;;;;;;24.38;63.20;100404.59;5022517;28;20049;-73
2021/08/05 11:18:06;;;;;;;2.40;1.30;;;;;;;24.60;63.74;100399.75;5022297;28;20576;-75
2021/08/05 11:20:32;;;;;;;1.35;1.25;;;;;;;24.69;64.80;100399.00;5014680;28;20041;-73
2021/08/05 11:22:58;;;;;;;2.22;1.30;;;;;;;24.80;65.98;100394.59;5023791;28;20381;-73